Terminal Aerodrome Forecast
Issued by NWS Hastings, NE

Home | Current Version | Previous Version | Text Only | Print | Product List | Glossary On
Versions: 1 2 3 4 5 6 7 8 9 10 11 12 13 14 15 16 17 18 19 20 21 22 23 24
000
FTUS43 KGID 250539
TAFGRI
TAF
KGRI 250539Z 2506/2606 31009KT P6SM SCT250
     FM251200 28006KT P6SM BKN200
     FM251700 22006KT P6SM BKN150
     FM252000 20010KT P6SM SCT150
     FM260400 23007KT P6SM SCT200=

USA.gov is the U.S. government's official web portal to all federal, state and local government web resources and services.